Mt View, North Carolina
Current Conditions -  °F | °C
As of 12:53 AM on Saturday 20 Dec 2014 (Local Time) from KHKY Reporting Station
Clear Clear  
Wind Chill: 41°   Ceiling: Unl
Heat Index: 41°   Visibility: 10mi
Dew Point: 28°   Wind: 0mph
Humidity: 60%   Direction: NA
Pressure: 30.17"   Gusts: NA
Location:  35.6584°N, 81.3878°W
Report Text: KHKY 200553Z AUTO 00000KT 10SM CLR 05/M02 A3017 RMK AO2 SLP209 T00501022 10089 20050 50010
Loading
Personal Weather Stations






























Interactive Weather Map New forecast layout! Learn more

10-Day Weather Forecast

Advertisements
Track Severe Weather on mobile